createdAt,value
2022-11-30T00:01:16.146Z,3.80
2022-11-30T00:03:43.326Z,3.79
2022-11-30T00:06:12.363Z,3.74
2022-11-30T00:08:39.045Z,3.74
2022-11-30T00:11:09.346Z,3.71
2022-11-30T00:13:35.872Z,3.67
2022-11-30T00:16:02.330Z,3.65
2022-11-30T00:18:28.831Z,3.61
2022-11-30T00:20:55.419Z,3.55
2022-11-30T00:23:21.842Z,3.44
2022-11-30T00:25:48.255Z,3.55
2022-11-30T00:28:14.775Z,3.67
2022-11-30T00:30:41.243Z,3.53
2022-11-30T00:33:07.680Z,3.45
2022-11-30T00:35:34.096Z,3.42
2022-11-30T00:38:03.104Z,3.37
2022-11-30T00:40:29.538Z,3.32
2022-11-30T00:42:56.344Z,3.33
2022-11-30T00:45:22.824Z,3.34
2022-11-30T00:47:49.264Z,3.39
2022-11-30T00:50:15.814Z,3.39
2022-11-30T00:52:42.241Z,3.34
2022-11-30T00:55:09.232Z,3.27
2022-11-30T00:57:35.651Z,3.19
2022-11-30T01:00:02.161Z,3.18
2022-11-30T01:02:28.673Z,3.18
2022-11-30T01:04:55.127Z,3.20
2022-11-30T01:07:21.615Z,3.20
2022-11-30T01:26:22.787Z,3.18
2022-11-30T01:28:53.871Z,3.20
2022-11-30T01:31:21.473Z,3.26
2022-11-30T01:45:19.614Z,3.03
2022-11-30T01:47:49.088Z,2.93
2022-11-30T01:50:21.632Z,2.79
2022-11-30T01:52:52.398Z,2.78
2022-11-30T01:55:32.336Z,2.83
2022-11-30T01:58:12.460Z,2.97
2022-11-30T02:00:44.096Z,2.99
2022-11-30T02:03:19.971Z,2.95
2022-11-30T02:05:46.479Z,2.92
2022-11-30T02:08:13.276Z,2.91
2022-11-30T02:10:42.852Z,2.89
2022-11-30T02:13:33.027Z,2.90
2022-11-30T02:16:18.034Z,2.82
2022-11-30T02:19:18.611Z,2.77
2022-11-30T02:22:18.958Z,2.72
2022-11-30T02:24:57.771Z,2.72
2022-11-30T02:27:46.002Z,2.72
2022-11-30T02:30:19.078Z,2.69
2022-11-30T02:32:51.174Z,2.56
2022-11-30T02:35:21.464Z,2.36
2022-11-30T02:37:51.655Z,2.24
2022-11-30T02:40:19.130Z,2.35
2022-11-30T02:42:46.433Z,2.35
2022-11-30T02:45:13.224Z,2.19
2022-11-30T02:48:04.509Z,2.08
2022-11-30T02:50:39.792Z,2.00
2022-11-30T02:53:08.720Z,1.83
2022-11-30T02:55:37.700Z,1.72
2022-11-30T02:58:04.237Z,1.70
2022-11-30T03:00:30.747Z,1.74
2022-11-30T03:02:57.335Z,1.63
2022-11-30T03:05:24.270Z,1.52
2022-11-30T03:07:50.865Z,1.59
2022-11-30T03:10:17.331Z,1.73
2022-11-30T03:12:43.781Z,1.50
2022-11-30T03:15:10.654Z,1.45
2022-11-30T03:17:37.129Z,1.41
2022-11-30T03:20:04.406Z,1.38
2022-11-30T03:22:31.008Z,1.27
2022-11-30T03:24:57.477Z,1.21
2022-11-30T03:27:23.953Z,1.15
2022-11-30T03:29:50.395Z,1.17
2022-11-30T03:32:16.830Z,1.28
2022-11-30T03:34:43.243Z,1.43
2022-11-30T03:37:09.689Z,1.38
2022-11-30T03:39:36.095Z,1.23
2022-11-30T03:42:02.587Z,1.03
2022-11-30T03:44:29.886Z,0.89
2022-11-30T03:46:56.307Z,0.73
2022-11-30T03:49:22.703Z,0.70
2022-11-30T03:51:49.110Z,0.74
2022-11-30T03:54:15.574Z,0.65
2022-11-30T03:56:41.995Z,0.64
2022-11-30T03:59:08.422Z,0.59
2022-11-30T04:01:36.204Z,0.60
2022-11-30T04:04:02.885Z,0.58
2022-11-30T04:06:29.429Z,0.65
2022-11-30T04:08:55.896Z,0.79
2022-11-30T04:11:22.368Z,0.69
2022-11-30T04:13:48.815Z,0.56
2022-11-30T04:16:15.423Z,0.57
2022-11-30T04:18:42.075Z,0.58
2022-11-30T04:21:09.824Z,0.73
2022-11-30T04:23:38.295Z,0.75
2022-11-30T04:26:06.320Z,0.71
2022-11-30T04:28:33.102Z,0.73
2022-11-30T04:31:00.884Z,0.71
2022-11-30T04:33:28.279Z,0.72
2022-11-30T04:35:56.536Z,0.73
2022-11-30T04:38:24.080Z,0.65
2022-11-30T04:40:50.597Z,0.68
2022-11-30T04:43:17.295Z,0.64
2022-11-30T04:45:44.895Z,0.68
2022-11-30T04:48:11.579Z,0.62
2022-11-30T04:50:39.329Z,0.55
2022-11-30T04:53:06.770Z,0.57
2022-11-30T04:55:33.494Z,0.56
2022-11-30T04:57:59.914Z,0.45
2022-11-30T05:00:26.404Z,0.39
2022-11-30T05:02:53.436Z,0.49
2022-11-30T05:05:20.015Z,0.52
2022-11-30T05:07:49.803Z,0.44
2022-11-30T05:10:16.452Z,0.33
2022-11-30T05:12:42.855Z,0.31
2022-11-30T05:15:09.895Z,0.25
2022-11-30T05:17:36.335Z,0.26
2022-11-30T05:20:02.873Z,0.27
2022-11-30T05:22:29.343Z,0.36
2022-11-30T05:24:55.740Z,0.31
2022-11-30T05:27:22.816Z,0.31
2022-11-30T05:29:49.540Z,0.33
2022-11-30T05:32:15.946Z,0.33
2022-11-30T05:34:50.774Z,0.34
2022-11-30T05:37:18.871Z,0.37
2022-11-30T05:39:45.280Z,0.34
2022-11-30T05:42:11.687Z,0.30
2022-11-30T05:44:38.129Z,0.41
2022-11-30T05:47:04.732Z,0.33
2022-11-30T05:49:31.201Z,0.41
2022-11-30T05:51:57.620Z,0.54
2022-11-30T05:54:24.029Z,0.51
2022-11-30T05:56:54.704Z,0.47
2022-11-30T05:59:21.570Z,0.43
2022-11-30T06:01:48.140Z,0.45
2022-11-30T06:04:14.748Z,0.61
2022-11-30T06:06:41.233Z,0.56
2022-11-30T06:09:07.719Z,0.51
2022-11-30T06:11:34.194Z,0.50
2022-11-30T06:14:00.639Z,0.32
2022-11-30T06:16:27.144Z,0.29
2022-11-30T06:18:53.619Z,0.34
2022-11-30T06:21:24.421Z,0.34
2022-11-30T06:23:51.776Z,0.52
2022-11-30T06:26:18.553Z,0.51
2022-11-30T06:28:48.182Z,0.67
2022-11-30T06:31:15.984Z,0.65
2022-11-30T06:33:42.616Z,0.59
2022-11-30T06:36:09.614Z,0.55
2022-11-30T06:38:36.193Z,0.67
2022-11-30T06:41:07.935Z,0.75
2022-11-30T06:43:36.470Z,0.82
2022-11-30T06:46:03.854Z,0.91
2022-11-30T06:48:30.635Z,0.92
2022-11-30T06:50:58.453Z,0.91
2022-11-30T06:53:25.300Z,0.99
2022-11-30T06:55:52.057Z,1.08
2022-11-30T06:58:18.963Z,1.17
2022-11-30T07:00:46.226Z,1.27
2022-11-30T07:03:12.953Z,1.33
2022-11-30T07:05:43.773Z,1.30
2022-11-30T07:08:11.106Z,1.32
2022-11-30T07:10:45.869Z,1.27
2022-11-30T07:13:18.100Z,1.33
2022-11-30T07:15:45.660Z,1.36
2022-11-30T07:18:12.230Z,1.34
2022-11-30T07:20:39.259Z,1.40
2022-11-30T07:23:24.540Z,1.42
2022-11-30T07:26:06.872Z,1.42
2022-11-30T07:28:35.046Z,1.49
2022-11-30T07:31:03.048Z,1.50
2022-11-30T07:33:31.424Z,1.47
2022-11-30T07:35:58.007Z,1.47
2022-11-30T07:38:24.440Z,1.43
2022-11-30T07:40:50.912Z,1.44
2022-11-30T07:43:17.660Z,1.51
2022-11-30T07:45:51.595Z,1.50
2022-11-30T07:48:18.023Z,1.54
2022-11-30T07:50:44.526Z,1.61
2022-11-30T07:53:10.934Z,1.64
2022-11-30T07:55:37.375Z,1.72
2022-11-30T07:58:03.796Z,1.66
2022-11-30T08:00:30.283Z,1.74
2022-11-30T08:02:56.720Z,1.73
2022-11-30T08:05:23.795Z,1.82
2022-11-30T08:07:52.161Z,1.74
2022-11-30T08:10:20.607Z,1.58
2022-11-30T08:12:48.240Z,1.76
2022-11-30T08:15:20.185Z,1.87
2022-11-30T08:17:50.099Z,1.94
2022-11-30T08:20:16.734Z,1.92
2022-11-30T08:22:43.308Z,2.02
2022-11-30T08:25:09.764Z,1.98
2022-11-30T08:27:36.196Z,2.03
2022-11-30T08:30:02.639Z,2.07
2022-11-30T08:32:29.061Z,2.17
2022-11-30T08:34:55.599Z,2.24
2022-11-30T08:37:21.992Z,2.37
2022-11-30T08:39:48.383Z,2.42
2022-11-30T08:42:14.947Z,2.46
2022-11-30T08:44:41.374Z,2.49
2022-11-30T08:47:07.868Z,2.46
2022-11-30T08:49:34.811Z,2.53
2022-11-30T08:54:48.801Z,2.70
2022-11-30T08:57:20.428Z,2.80
2022-11-30T08:59:52.922Z,2.82
2022-11-30T09:02:20.057Z,2.83
2022-11-30T09:04:49.043Z,2.77
2022-11-30T09:07:15.984Z,2.70
2022-11-30T09:09:42.470Z,2.75
2022-11-30T09:12:08.988Z,2.85
2022-11-30T09:14:35.540Z,2.89
2022-11-30T09:17:02.016Z,2.89
2022-11-30T09:19:28.429Z,3.09
2022-11-30T09:21:54.847Z,3.19
2022-11-30T09:24:21.384Z,3.04
2022-11-30T09:26:48.101Z,3.10
2022-11-30T09:29:14.591Z,3.09
2022-11-30T09:31:41.077Z,3.11
2022-11-30T09:34:07.480Z,3.13
2022-11-30T09:36:34.115Z,3.25
2022-11-30T09:39:01.010Z,3.22
2022-11-30T09:41:36.941Z,3.25
2022-11-30T09:44:12.501Z,3.28
2022-11-30T09:46:54.955Z,3.24
2022-11-30T09:49:31.549Z,3.26
2022-11-30T09:52:00.726Z,3.14
2022-11-30T09:54:39.414Z,3.17
2022-11-30T09:57:34.721Z,3.24
2022-11-30T10:00:04.847Z,3.25
2022-11-30T10:02:34.781Z,3.29
2022-11-30T10:05:01.716Z,3.38
2022-11-30T10:07:51.075Z,3.35
2022-11-30T10:10:44.622Z,3.24
2022-11-30T10:13:23.790Z,3.30
2022-11-30T10:16:12.664Z,3.34
2022-11-30T10:19:12.839Z,3.38
2022-11-30T10:21:42.276Z,3.44
2022-11-30T10:24:29.532Z,3.52
2022-11-30T10:26:58.007Z,3.52
2022-11-30T10:29:37.856Z,3.80
2022-11-30T10:32:12.078Z,3.78
2022-11-30T10:34:40.254Z,3.81
2022-11-30T10:37:14.937Z,3.84
2022-11-30T10:40:03.076Z,3.87
2022-11-30T10:42:46.634Z,3.99
2022-11-30T10:45:21.882Z,3.95
2022-11-30T10:48:19.164Z,3.98
2022-11-30T10:50:45.909Z,4.03
2022-11-30T10:53:13.001Z,4.09
2022-11-30T10:55:48.476Z,4.13
2022-11-30T10:58:17.739Z,4.17
2022-11-30T11:01:03.365Z,4.19
2022-11-30T11:03:30.475Z,4.25
2022-11-30T11:06:21.948Z,4.34
2022-11-30T11:08:48.493Z,4.36
2022-11-30T11:11:29.988Z,4.47
2022-11-30T11:14:14.525Z,4.54
2022-11-30T11:16:54.985Z,4.61
2022-11-30T11:19:36.811Z,4.62
2022-11-30T11:22:06.756Z,4.64
2022-11-30T11:24:34.270Z,4.71
2022-11-30T11:27:01.034Z,4.73
2022-11-30T11:29:33.611Z,4.77
2022-11-30T11:32:24.911Z,4.87
2022-11-30T11:34:52.205Z,4.88
2022-11-30T11:37:33.822Z,4.94
2022-11-30T11:40:03.448Z,4.94
2022-11-30T11:42:43.131Z,4.92
2022-11-30T11:45:22.487Z,4.95
2022-11-30T11:48:11.790Z,5.07
2022-11-30T11:53:53.241Z,5.03
2022-11-30T11:56:33.839Z,5.11
2022-11-30T11:59:09.479Z,5.10
2022-11-30T12:02:13.972Z,5.20
2022-11-30T12:04:43.902Z,5.29
2022-11-30T12:07:45.799Z,5.33
2022-11-30T12:13:22.029Z,5.49
2022-11-30T12:16:17.120Z,5.52
2022-11-30T12:19:17.350Z,5.53
2022-11-30T12:22:02.025Z,5.69
2022-11-30T12:24:55.822Z,5.86
2022-11-30T12:27:56.012Z,5.92
2022-11-30T12:30:28.467Z,5.98
2022-11-30T12:33:11.970Z,6.01
2022-11-30T12:36:22.869Z,6.03
2022-11-30T12:38:58.795Z,6.12
2022-11-30T12:41:35.851Z,6.18
2022-11-30T12:44:04.937Z,6.24
2022-11-30T12:47:00.701Z,6.19
2022-11-30T12:49:45.258Z,6.25
2022-11-30T12:52:42.562Z,6.38
2022-11-30T12:55:30.316Z,6.37
2022-11-30T12:57:56.681Z,6.46
2022-11-30T13:00:25.197Z,6.52
2022-11-30T13:03:10.690Z,6.54
2022-11-30T13:05:44.821Z,6.58
2022-11-30T13:08:25.629Z,6.60
2022-11-30T13:10:57.242Z,6.63
2022-11-30T13:13:31.385Z,6.64
2022-11-30T13:15:59.686Z,6.64
2022-11-30T13:18:27.207Z,6.66
2022-11-30T13:21:06.570Z,6.74
2022-11-30T13:24:10.329Z,6.82
2022-11-30T13:27:15.430Z,6.86
2022-11-30T13:29:50.139Z,6.81
2022-11-30T13:32:55.447Z,6.81
2022-11-30T13:35:29.537Z,6.84
2022-11-30T13:38:34.792Z,6.86
2022-11-30T13:41:08.889Z,6.87
2022-11-30T13:43:41.576Z,6.89
2022-11-30T13:46:12.265Z,6.93
2022-11-30T13:48:41.194Z,6.93
2022-11-30T13:51:08.484Z,6.96
2022-11-30T13:53:39.195Z,6.99
2022-11-30T13:56:17.419Z,6.99
2022-11-30T13:59:24.561Z,7.02
2022-11-30T14:04:45.196Z,7.05
2022-11-30T14:07:34.688Z,7.06
2022-11-30T14:10:01.776Z,7.09
2022-11-30T14:12:34.729Z,7.11
2022-11-30T14:15:02.481Z,7.09
2022-11-30T14:17:37.927Z,7.10
2022-11-30T14:20:22.131Z,7.12
2022-11-30T14:22:48.762Z,7.11
2022-11-30T14:25:17.408Z,7.11
2022-11-30T14:27:44.466Z,7.11
2022-11-30T14:30:18.766Z,7.07
2022-11-30T14:32:52.631Z,7.09
2022-11-30T14:35:20.451Z,7.07
2022-11-30T14:37:53.498Z,7.06
2022-11-30T14:40:22.373Z,7.07
2022-11-30T14:42:57.413Z,7.09
2022-11-30T14:45:29.509Z,7.07
2022-11-30T14:48:19.692Z,7.05
2022-11-30T14:50:51.843Z,7.05
2022-11-30T14:53:29.580Z,7.05
2022-11-30T14:56:06.931Z,7.03
2022-11-30T14:58:44.735Z,7.01
2022-11-30T15:01:20.654Z,6.99
2022-11-30T15:03:49.830Z,6.96
2022-11-30T15:06:18.784Z,6.94
2022-11-30T15:08:49.950Z,6.93
2022-11-30T15:11:17.560Z,6.93
2022-11-30T15:13:54.788Z,6.93
2022-11-30T15:16:24.998Z,6.89
2022-11-30T15:18:56.501Z,6.84
2022-11-30T15:21:24.408Z,6.79
2022-11-30T15:23:59.592Z,6.75
2022-11-30T15:26:36.909Z,6.71
2022-11-30T15:29:12.476Z,6.68
2022-11-30T15:31:43.647Z,6.65
2022-11-30T15:34:21.956Z,6.62
2022-11-30T15:36:48.638Z,6.57
2022-11-30T15:39:22.370Z,6.50
2022-11-30T15:41:57.476Z,6.43
2022-11-30T15:44:27.051Z,6.40
2022-11-30T15:47:02.515Z,6.38
2022-11-30T15:49:31.587Z,6.34
2022-11-30T15:52:14.213Z,6.30
2022-11-30T15:54:48.170Z,6.23
2022-11-30T15:57:16.042Z,6.23
2022-11-30T15:59:42.894Z,6.21
2022-11-30T16:02:48.143Z,6.15
2022-11-30T16:05:18.034Z,6.12
2022-11-30T16:07:57.075Z,6.10
2022-11-30T16:10:27.503Z,6.05
2022-11-30T16:12:55.427Z,6.06
2022-11-30T16:15:23.622Z,6.04
2022-11-30T16:17:51.381Z,6.00
2022-11-30T16:20:17.946Z,5.99
2022-11-30T16:22:46.580Z,5.96
2022-11-30T16:25:15.881Z,5.92
2022-11-30T16:27:43.231Z,5.99
2022-11-30T16:30:14.274Z,5.92
2022-11-30T16:32:40.865Z,5.85
2022-11-30T16:35:34.457Z,5.73
2022-11-30T16:38:01.093Z,5.65
2022-11-30T16:40:27.489Z,5.59
2022-11-30T16:42:53.915Z,5.52
2022-11-30T16:45:25.180Z,5.44
2022-11-30T16:47:52.320Z,5.37
2022-11-30T16:50:19.826Z,5.31
2022-11-30T16:52:46.550Z,5.30
2022-11-30T16:55:19.166Z,5.29
2022-11-30T16:57:46.390Z,5.26
2022-11-30T17:00:15.667Z,5.21
2022-11-30T17:02:48.393Z,5.19
2022-11-30T17:05:15.231Z,5.15
2022-11-30T17:07:42.051Z,5.13
2022-11-30T17:10:08.962Z,5.07
2022-11-30T17:12:35.652Z,5.03
2022-11-30T17:15:03.782Z,4.99
2022-11-30T17:17:30.388Z,4.92
2022-11-30T17:19:56.827Z,4.87
2022-11-30T17:22:23.282Z,4.83
2022-11-30T17:24:49.899Z,4.87
2022-11-30T17:27:16.487Z,4.92
2022-11-30T17:29:43.520Z,4.95
2022-11-30T17:32:10.021Z,4.89
2022-11-30T17:34:36.559Z,4.82
2022-11-30T17:37:03.066Z,4.79
2022-11-30T17:39:29.587Z,4.80
2022-11-30T17:41:56.045Z,4.79
2022-11-30T17:44:22.504Z,4.80
2022-11-30T17:46:48.959Z,4.77
2022-11-30T17:49:15.410Z,4.81
2022-11-30T17:51:41.854Z,5.04
2022-11-30T17:54:08.614Z,5.05
2022-11-30T17:56:35.794Z,4.89
2022-11-30T17:59:02.537Z,4.73
2022-11-30T18:01:29.043Z,4.60
2022-11-30T18:03:56.356Z,4.55
2022-11-30T18:06:22.896Z,4.50
2022-11-30T18:08:49.626Z,4.45
2022-11-30T18:11:21.879Z,4.51
2022-11-30T18:13:51.599Z,4.57
2022-11-30T18:16:20.900Z,4.57
2022-11-30T18:18:48.671Z,4.53
2022-11-30T18:21:18.868Z,4.52
2022-11-30T18:23:45.670Z,4.47
2022-11-30T18:26:15.081Z,4.46
2022-11-30T18:28:41.802Z,4.44
2022-11-30T18:31:08.718Z,4.47
2022-11-30T18:33:36.731Z,4.43
2022-11-30T18:36:07.229Z,4.43
2022-11-30T18:38:38.138Z,4.40
2022-11-30T18:41:05.557Z,4.47
2022-11-30T18:43:33.409Z,4.47
2022-11-30T18:46:08.800Z,4.54
2022-11-30T18:48:35.942Z,4.61
2022-11-30T18:51:14.219Z,4.50
2022-11-30T18:53:41.605Z,4.52
2022-11-30T18:56:29.859Z,4.47
2022-11-30T18:58:58.507Z,4.30
2022-11-30T19:01:25.849Z,4.22
2022-11-30T19:03:58.030Z,4.24
2022-11-30T19:06:28.142Z,4.22
2022-11-30T19:08:54.585Z,4.17
2022-11-30T19:11:22.052Z,4.16
2022-11-30T19:13:52.727Z,4.17
2022-11-30T19:16:19.274Z,4.15
2022-11-30T19:18:45.907Z,4.13
2022-11-30T19:21:15.185Z,4.09
2022-11-30T19:23:41.986Z,4.07
2022-11-30T19:26:10.004Z,4.10
2022-11-30T19:28:37.917Z,4.11
2022-11-30T19:31:09.957Z,4.08
2022-11-30T19:33:37.912Z,4.14
2022-11-30T19:36:06.627Z,4.24
2022-11-30T19:38:33.106Z,4.25
2022-11-30T19:40:59.513Z,4.23
2022-11-30T19:43:25.972Z,4.24
2022-11-30T19:45:52.419Z,4.24
2022-11-30T19:48:18.841Z,4.14
2022-11-30T19:50:45.400Z,4.06
2022-11-30T19:53:11.809Z,4.10
2022-11-30T19:55:40.143Z,4.14
2022-11-30T19:58:06.551Z,4.24
2022-11-30T20:00:32.969Z,4.32
2022-11-30T20:02:59.534Z,4.26
2022-11-30T20:05:25.973Z,4.17
2022-11-30T20:07:52.406Z,4.09
2022-11-30T20:10:18.929Z,4.08
2022-11-30T20:12:45.360Z,4.05
2022-11-30T20:15:12.054Z,4.03
2022-11-30T20:17:38.470Z,4.00
2022-11-30T20:20:05.616Z,4.00
2022-11-30T20:22:33.288Z,3.97
2022-11-30T20:24:59.694Z,3.92
2022-11-30T20:27:26.228Z,3.92
2022-11-30T20:29:52.660Z,3.91
2022-11-30T20:32:19.754Z,3.87
2022-11-30T20:34:46.538Z,3.91
2022-11-30T20:37:13.448Z,3.89
2022-11-30T20:39:45.672Z,3.84
2022-11-30T20:42:12.624Z,3.86
2022-11-30T20:44:39.085Z,3.89
2022-11-30T20:47:05.506Z,3.92
2022-11-30T20:49:31.996Z,3.98
2022-11-30T20:51:58.439Z,4.02
2022-11-30T20:54:24.902Z,4.03
2022-11-30T20:56:51.670Z,3.95
2022-11-30T20:59:26.280Z,3.94
2022-11-30T21:01:54.887Z,3.98
2022-11-30T21:04:23.626Z,4.02
2022-11-30T21:06:50.305Z,4.02
2022-11-30T21:09:18.337Z,4.00
2022-11-30T21:11:45.164Z,3.97
2022-11-30T21:14:12.627Z,3.97
2022-11-30T21:16:40.106Z,3.95
2022-11-30T21:19:06.574Z,3.94
2022-11-30T21:21:35.239Z,4.00
2022-11-30T21:24:05.364Z,4.01
2022-11-30T21:26:37.447Z,3.95
2022-11-30T21:29:06.877Z,3.90
2022-11-30T21:31:33.967Z,3.88
2022-11-30T21:34:01.433Z,3.88
2022-11-30T21:36:28.163Z,3.74
2022-11-30T21:39:04.110Z,3.65
2022-11-30T21:41:31.913Z,3.53
2022-11-30T21:43:58.409Z,3.42
2022-11-30T21:46:24.879Z,3.38
2022-11-30T21:48:51.470Z,3.41
2022-11-30T21:51:24.008Z,3.43
2022-11-30T21:53:53.656Z,3.43
2022-11-30T21:56:22.629Z,3.41
2022-11-30T21:58:50.477Z,3.43
2022-11-30T22:01:19.518Z,3.45
2022-11-30T22:03:46.163Z,3.42
2022-11-30T22:06:18.201Z,3.42
2022-11-30T22:08:45.992Z,3.39
2022-11-30T22:11:16.180Z,3.40
2022-11-30T22:13:43.589Z,3.31
2022-11-30T22:16:12.840Z,3.24
2022-11-30T22:18:40.623Z,3.21
2022-11-30T22:21:09.073Z,3.28
2022-11-30T22:23:37.285Z,3.31
2022-11-30T22:26:14.070Z,3.37
2022-11-30T22:28:46.011Z,3.35
2022-11-30T22:31:14.777Z,3.22
2022-11-30T22:33:42.996Z,3.08
2022-11-30T22:36:21.120Z,3.04
2022-11-30T22:38:52.720Z,3.05
2022-11-30T22:41:19.047Z,3.08
2022-11-30T22:43:46.492Z,3.17
2022-11-30T22:46:18.914Z,3.16
2022-11-30T22:48:46.653Z,3.09
2022-11-30T22:51:19.065Z,3.12
2022-11-30T22:53:49.320Z,3.07
2022-11-30T22:56:17.428Z,2.93
2022-11-30T22:58:45.022Z,2.98
2022-11-30T23:01:14.473Z,2.92
2022-11-30T23:03:42.734Z,2.87
2022-11-30T23:06:10.278Z,2.92
2022-11-30T23:08:37.823Z,2.89
2022-11-30T23:11:07.004Z,2.84
2022-11-30T23:13:34.106Z,2.91
2022-11-30T23:16:01.067Z,3.00
2022-11-30T23:18:29.414Z,3.08
2022-11-30T23:20:57.078Z,3.08
2022-11-30T23:23:23.976Z,3.02
2022-11-30T23:25:50.735Z,2.98
2022-11-30T23:28:17.340Z,2.96
2022-11-30T23:30:43.794Z,2.86
2022-11-30T23:33:10.422Z,2.93
2022-11-30T23:35:41.925Z,2.88
2022-11-30T23:38:08.376Z,2.79
2022-11-30T23:40:34.769Z,2.76
2022-11-30T23:43:01.180Z,2.78
2022-11-30T23:45:27.570Z,2.88
2022-11-30T23:47:53.979Z,2.82
2022-11-30T23:50:20.460Z,2.68
2022-11-30T23:52:47.143Z,2.61
2022-11-30T23:55:13.535Z,2.63
2022-11-30T23:57:39.942Z,2.62
